sensor_id;sensor_type;location;lat;lon;timestamp;P1;durP1;ratioP1;P2;durP2;ratioP2
69629;SDS011;56857;52.212;5.496;2023-04-01T00:00:03;11.98;;;5.93;;
69629;SDS011;56857;52.212;5.496;2023-04-01T00:02:30;13.80;;;6.88;;
69629;SDS011;56857;52.212;5.496;2023-04-01T00:04:55;13.48;;;6.75;;
69629;SDS011;56857;52.212;5.496;2023-04-01T00:07:20;16.33;;;7.13;;
69629;SDS011;56857;52.212;5.496;2023-04-01T00:09:46;17.50;;;7.50;;
69629;SDS011;56857;52.212;5.496;2023-04-01T00:12:11;15.40;;;7.78;;
69629;SDS011;56857;52.212;5.496;2023-04-01T00:14:37;16.63;;;7.53;;
69629;SDS011;56857;52.212;5.496;2023-04-01T00:17:02;18.27;;;8.13;;
69629;SDS011;56857;52.212;5.496;2023-04-01T00:19:28;22.70;;;8.20;;
69629;SDS011;56857;52.212;5.496;2023-04-01T00:21:53;15.23;;;7.47;;
69629;SDS011;56857;52.212;5.496;2023-04-01T00:24:18;19.58;;;7.50;;
69629;SDS011;56857;52.212;5.496;2023-04-01T00:26:46;18.27;;;7.90;;
69629;SDS011;56857;52.212;5.496;2023-04-01T00:29:11;16.73;;;7.13;;
69629;SDS011;56857;52.212;5.496;2023-04-01T00:31:38;18.35;;;7.90;;
69629;SDS011;56857;52.212;5.496;2023-04-01T00:34:03;14.85;;;7.32;;
69629;SDS011;56857;52.212;5.496;2023-04-01T00:36:28;18.00;;;8.73;;
69629;SDS011;56857;52.212;5.496;2023-04-01T00:38:54;19.05;;;7.72;;
69629;SDS011;56857;52.212;5.496;2023-04-01T00:41:19;14.83;;;6.63;;
69629;SDS011;56857;52.212;5.496;2023-04-01T00:43:46;15.60;;;6.68;;
69629;SDS011;56857;52.212;5.496;2023-04-01T00:46:13;19.30;;;7.75;;
69629;SDS011;56857;52.212;5.496;2023-04-01T00:48:43;18.67;;;6.72;;
69629;SDS011;56857;52.212;5.496;2023-04-01T00:51:25;19.25;;;6.63;;
69629;SDS011;56857;52.212;5.496;2023-04-01T00:53:55;15.77;;;7.10;;
69629;SDS011;56857;52.212;5.496;2023-04-01T00:56:34;17.52;;;6.50;;
69629;SDS011;56857;52.212;5.496;2023-04-01T00:59:02;17.30;;;6.88;;
69629;SDS011;56857;52.212;5.496;2023-04-01T01:01:31;18.58;;;7.05;;
69629;SDS011;56857;52.212;5.496;2023-04-01T01:03:58;16.23;;;7.07;;
69629;SDS011;56857;52.212;5.496;2023-04-01T01:06:31;18.40;;;8.25;;
69629;SDS011;56857;52.212;5.496;2023-04-01T01:09:02;17.08;;;8.13;;
69629;SDS011;56857;52.212;5.496;2023-04-01T01:11:55;16.85;;;7.60;;
69629;SDS011;56857;52.212;5.496;2023-04-01T01:15:11;19.15;;;7.95;;
69629;SDS011;56857;52.212;5.496;2023-04-01T01:23:29;17.75;;;7.38;;
69629;SDS011;56857;52.212;5.496;2023-04-01T01:26:19;17.52;;;8.63;;
69629;SDS011;56857;52.212;5.496;2023-04-01T01:37:37;17.77;;;6.65;;
69629;SDS011;56857;52.212;5.496;2023-04-01T01:40:07;14.43;;;6.60;;
69629;SDS011;56857;52.212;5.496;2023-04-01T01:42:36;14.73;;;6.50;;
69629;SDS011;56857;52.212;5.496;2023-04-01T01:45:04;13.57;;;5.80;;
69629;SDS011;56857;52.212;5.496;2023-04-01T01:47:33;11.88;;;4.80;;
69629;SDS011;56857;52.212;5.496;2023-04-01T01:50:02;11.30;;;4.57;;
69629;SDS011;56857;52.212;5.496;2023-04-01T01:52:29;12.35;;;4.38;;
69629;SDS011;56857;52.212;5.496;2023-04-01T01:54:55;11.65;;;4.50;;
69629;SDS011;56857;52.212;5.496;2023-04-01T01:57:28;12.90;;;4.72;;
69629;SDS011;56857;52.212;5.496;2023-04-01T01:59:58;11.38;;;4.93;;
69629;SDS011;56857;52.212;5.496;2023-04-01T02:02:30;10.50;;;4.93;;
69629;SDS011;56857;52.212;5.496;2023-04-01T02:04:56;12.20;;;4.95;;
69629;SDS011;56857;52.212;5.496;2023-04-01T02:07:31;10.20;;;4.60;;
69629;SDS011;56857;52.212;5.496;2023-04-01T02:10:08;11.48;;;4.32;;
69629;SDS011;56857;52.212;5.496;2023-04-01T02:12:35;10.20;;;4.15;;
69629;SDS011;56857;52.212;5.496;2023-04-01T02:15:07;8.18;;;3.53;;
69629;SDS011;56857;52.212;5.496;2023-04-01T02:17:38;11.95;;;3.75;;
69629;SDS011;56857;52.212;5.496;2023-04-01T02:20:18;8.80;;;3.47;;
69629;SDS011;56857;52.212;5.496;2023-04-01T02:22:52;9.65;;;3.85;;
69629;SDS011;56857;52.212;5.496;2023-04-01T02:25:23;8.70;;;3.50;;
69629;SDS011;56857;52.212;5.496;2023-04-01T02:27:54;8.70;;;3.72;;
69629;SDS011;56857;52.212;5.496;2023-04-01T02:30:21;7.45;;;3.70;;
69629;SDS011;56857;52.212;5.496;2023-04-01T02:32:48;7.70;;;3.42;;
69629;SDS011;56857;52.212;5.496;2023-04-01T02:35:14;6.90;;;2.92;;
69629;SDS011;56857;52.212;5.496;2023-04-01T02:37:44;7.00;;;2.92;;
69629;SDS011;56857;52.212;5.496;2023-04-01T02:40:11;6.05;;;2.90;;
69629;SDS011;56857;52.212;5.496;2023-04-01T02:42:44;6.30;;;2.95;;
69629;SDS011;56857;52.212;5.496;2023-04-01T02:45:10;7.80;;;3.05;;
69629;SDS011;56857;52.212;5.496;2023-04-01T02:47:38;7.60;;;3.00;;
69629;SDS011;56857;52.212;5.496;2023-04-01T02:50:04;8.82;;;3.00;;
69629;SDS011;56857;52.212;5.496;2023-04-01T02:52:31;5.28;;;2.53;;
69629;SDS011;56857;52.212;5.496;2023-04-01T02:54:57;8.68;;;3.33;;
69629;SDS011;56857;52.212;5.496;2023-04-01T02:57:23;7.18;;;3.20;;
69629;SDS011;56857;52.212;5.496;2023-04-01T02:59:50;7.70;;;2.90;;
69629;SDS011;56857;52.212;5.496;2023-04-01T03:02:21;8.18;;;3.13;;
69629;SDS011;56857;52.212;5.496;2023-04-01T03:04:59;9.35;;;3.42;;
69629;SDS011;56857;52.212;5.496;2023-04-01T03:07:24;7.43;;;3.08;;
69629;SDS011;56857;52.212;5.496;2023-04-01T03:09:49;6.93;;;3.38;;
69629;SDS011;56857;52.212;5.496;2023-04-01T03:12:16;8.00;;;2.97;;
69629;SDS011;56857;52.212;5.496;2023-04-01T03:14:46;7.90;;;3.58;;
69629;SDS011;56857;52.212;5.496;2023-04-01T03:17:13;7.47;;;3.38;;
69629;SDS011;56857;52.212;5.496;2023-04-01T03:19:39;6.93;;;3.13;;
69629;SDS011;56857;52.212;5.496;2023-04-01T03:22:05;7.40;;;3.43;;
69629;SDS011;56857;52.212;5.496;2023-04-01T03:24:32;7.45;;;3.28;;
69629;SDS011;56857;52.212;5.496;2023-04-01T03:27:05;6.20;;;3.13;;
69629;SDS011;56857;52.212;5.496;2023-04-01T03:29:31;7.57;;;3.03;;
69629;SDS011;56857;52.212;5.496;2023-04-01T03:31:58;9.48;;;3.40;;
69629;SDS011;56857;52.212;5.496;2023-04-01T03:34:24;6.60;;;3.55;;
69629;SDS011;56857;52.212;5.496;2023-04-01T03:36:50;6.80;;;3.20;;
69629;SDS011;56857;52.212;5.496;2023-04-01T03:39:16;9.65;;;3.63;;
69629;SDS011;56857;52.212;5.496;2023-04-01T03:41:42;10.32;;;4.05;;
69629;SDS011;56857;52.212;5.496;2023-04-01T03:44:07;7.80;;;3.80;;
69629;SDS011;56857;52.212;5.496;2023-04-01T03:46:33;9.98;;;4.55;;
69629;SDS011;56857;52.212;5.496;2023-04-01T03:49:01;8.55;;;5.22;;
69629;SDS011;56857;52.212;5.496;2023-04-01T03:51:28;10.90;;;5.15;;
69629;SDS011;56857;52.212;5.496;2023-04-01T03:53:54;10.02;;;5.32;;
69629;SDS011;56857;52.212;5.496;2023-04-01T03:56:21;9.52;;;5.45;;
69629;SDS011;56857;52.212;5.496;2023-04-01T03:58:46;10.88;;;5.70;;
69629;SDS011;56857;52.212;5.496;2023-04-01T04:01:19;10.23;;;5.70;;
69629;SDS011;56857;52.212;5.496;2023-04-01T04:03:46;11.45;;;5.65;;
69629;SDS011;56857;52.212;5.496;2023-04-01T04:06:13;11.98;;;5.88;;
69629;SDS011;56857;52.212;5.496;2023-04-01T04:08:57;12.07;;;6.53;;
69629;SDS011;56857;52.212;5.496;2023-04-01T04:11:25;14.57;;;7.35;;
69629;SDS011;56857;52.212;5.496;2023-04-01T04:13:50;17.98;;;7.50;;
69629;SDS011;56857;52.212;5.496;2023-04-01T04:16:34;14.50;;;6.65;;
69629;SDS011;56857;52.212;5.496;2023-04-01T04:19:00;15.02;;;7.00;;
69629;SDS011;56857;52.212;5.496;2023-04-01T04:21:35;14.65;;;7.15;;
69629;SDS011;56857;52.212;5.496;2023-04-01T04:26:40;13.50;;;6.80;;
69629;SDS011;56857;52.212;5.496;2023-04-01T04:29:05;14.35;;;6.78;;
69629;SDS011;56857;52.212;5.496;2023-04-01T04:31:31;13.43;;;6.97;;
69629;SDS011;56857;52.212;5.496;2023-04-01T04:34:02;15.27;;;6.70;;
69629;SDS011;56857;52.212;5.496;2023-04-01T04:36:27;16.42;;;6.82;;
69629;SDS011;56857;52.212;5.496;2023-04-01T04:38:53;16.88;;;7.65;;
69629;SDS011;56857;52.212;5.496;2023-04-01T04:41:20;17.50;;;7.72;;
69629;SDS011;56857;52.212;5.496;2023-04-01T04:43:50;17.17;;;7.40;;
69629;SDS011;56857;52.212;5.496;2023-04-01T04:46:20;16.90;;;8.13;;
69629;SDS011;56857;52.212;5.496;2023-04-01T04:48:46;15.70;;;8.23;;
69629;SDS011;56857;52.212;5.496;2023-04-01T04:51:15;16.73;;;8.30;;
69629;SDS011;56857;52.212;5.496;2023-04-01T04:53:41;15.98;;;7.15;;
69629;SDS011;56857;52.212;5.496;2023-04-01T04:56:11;17.30;;;7.50;;
69629;SDS011;56857;52.212;5.496;2023-04-01T04:58:37;16.13;;;8.30;;
69629;SDS011;56857;52.212;5.496;2023-04-01T05:01:12;17.20;;;7.68;;
69629;SDS011;56857;52.212;5.496;2023-04-01T05:03:39;14.93;;;7.10;;
69629;SDS011;56857;52.212;5.496;2023-04-01T05:06:06;15.77;;;7.50;;
69629;SDS011;56857;52.212;5.496;2023-04-01T05:08:36;15.43;;;6.93;;
69629;SDS011;56857;52.212;5.496;2023-04-01T05:11:02;15.40;;;7.07;;
69629;SDS011;56857;52.212;5.496;2023-04-01T05:13:57;16.23;;;7.10;;
69629;SDS011;56857;52.212;5.496;2023-04-01T05:16:22;13.70;;;6.40;;
69629;SDS011;56857;52.212;5.496;2023-04-01T05:18:47;15.75;;;7.05;;
69629;SDS011;56857;52.212;5.496;2023-04-01T05:21:13;12.57;;;6.32;;
69629;SDS011;56857;52.212;5.496;2023-04-01T05:23:43;14.88;;;6.68;;
69629;SDS011;56857;52.212;5.496;2023-04-01T05:26:12;12.63;;;6.40;;
69629;SDS011;56857;52.212;5.496;2023-04-01T05:28:39;14.77;;;6.18;;
69629;SDS011;56857;52.212;5.496;2023-04-01T05:31:04;14.95;;;6.20;;
69629;SDS011;56857;52.212;5.496;2023-04-01T05:33:31;11.88;;;6.07;;
69629;SDS011;56857;52.212;5.496;2023-04-01T05:36:07;11.80;;;5.90;;
69629;SDS011;56857;52.212;5.496;2023-04-01T05:38:34;11.05;;;4.75;;
69629;SDS011;56857;52.212;5.496;2023-04-01T05:41:00;11.40;;;4.50;;
69629;SDS011;56857;52.212;5.496;2023-04-01T05:43:26;7.82;;;3.78;;
69629;SDS011;56857;52.212;5.496;2023-04-01T05:45:51;7.30;;;3.15;;
69629;SDS011;56857;52.212;5.496;2023-04-01T05:50:57;7.55;;;3.25;;
69629;SDS011;56857;52.212;5.496;2023-04-01T05:53:30;8.20;;;3.70;;
69629;SDS011;56857;52.212;5.496;2023-04-01T05:55:55;8.18;;;3.72;;
69629;SDS011;56857;52.212;5.496;2023-04-01T05:58:37;7.47;;;3.22;;
69629;SDS011;56857;52.212;5.496;2023-04-01T06:03:36;7.85;;;3.75;;
69629;SDS011;56857;52.212;5.496;2023-04-01T06:06:01;8.70;;;3.97;;
69629;SDS011;56857;52.212;5.496;2023-04-01T06:08:27;8.73;;;4.07;;
69629;SDS011;56857;52.212;5.496;2023-04-01T06:19:40;7.30;;;3.42;;
69629;SDS011;56857;52.212;5.496;2023-04-01T06:22:26;7.47;;;3.30;;
69629;SDS011;56857;52.212;5.496;2023-04-01T06:24:59;7.70;;;3.38;;
69629;SDS011;56857;52.212;5.496;2023-04-01T06:30:35;6.97;;;2.90;;
69629;SDS011;56857;52.212;5.496;2023-04-01T06:39:01;6.05;;;2.50;;
69629;SDS011;56857;52.212;5.496;2023-04-01T06:49:53;6.70;;;2.60;;
69629;SDS011;56857;52.212;5.496;2023-04-01T06:52:43;6.25;;;2.50;;
69629;SDS011;56857;52.212;5.496;2023-04-01T06:57:49;4.82;;;1.75;;
69629;SDS011;56857;52.212;5.496;2023-04-01T07:00:32;5.53;;;1.92;;
69629;SDS011;56857;52.212;5.496;2023-04-01T07:03:05;5.70;;;1.65;;
69629;SDS011;56857;52.212;5.496;2023-04-01T07:05:38;5.10;;;1.60;;
69629;SDS011;56857;52.212;5.496;2023-04-01T07:08:12;3.80;;;1.60;;
69629;SDS011;56857;52.212;5.496;2023-04-01T07:10:55;5.53;;;1.80;;
69629;SDS011;56857;52.212;5.496;2023-04-01T07:16:21;5.82;;;2.17;;
69629;SDS011;56857;52.212;5.496;2023-04-01T07:22:21;6.57;;;2.55;;
69629;SDS011;56857;52.212;5.496;2023-04-01T07:24:54;5.88;;;2.28;;
69629;SDS011;56857;52.212;5.496;2023-04-01T07:27:20;5.97;;;2.45;;
69629;SDS011;56857;52.212;5.496;2023-04-01T07:29:45;5.57;;;2.40;;
69629;SDS011;56857;52.212;5.496;2023-04-01T07:48:53;5.85;;;2.30;;
69629;SDS011;56857;52.212;5.496;2023-04-01T07:51:24;5.93;;;2.88;;
69629;SDS011;56857;52.212;5.496;2023-04-01T07:54:07;6.22;;;2.30;;
69629;SDS011;56857;52.212;5.496;2023-04-01T07:59:08;6.07;;;2.50;;
69629;SDS011;56857;52.212;5.496;2023-04-01T08:07:45;6.00;;;2.42;;
69629;SDS011;56857;52.212;5.496;2023-04-01T08:10:22;6.63;;;2.65;;
69629;SDS011;56857;52.212;5.496;2023-04-01T08:21:57;9.13;;;4.28;;
69629;SDS011;56857;52.212;5.496;2023-04-01T08:27:11;9.73;;;4.43;;
69629;SDS011;56857;52.212;5.496;2023-04-01T08:29:57;10.02;;;4.30;;
69629;SDS011;56857;52.212;5.496;2023-04-01T08:32:36;8.30;;;3.90;;
69629;SDS011;56857;52.212;5.496;2023-04-01T08:35:09;7.53;;;3.70;;
69629;SDS011;56857;52.212;5.496;2023-04-01T08:37:51;7.88;;;3.78;;
69629;SDS011;56857;52.212;5.496;2023-04-01T08:43:12;9.30;;;4.63;;
69629;SDS011;56857;52.212;5.496;2023-04-01T08:46:14;9.35;;;4.88;;
69629;SDS011;56857;52.212;5.496;2023-04-01T09:10:29;12.50;;;6.32;;
69629;SDS011;56857;52.212;5.496;2023-04-01T09:18:28;12.57;;;6.20;;
69629;SDS011;56857;52.212;5.496;2023-04-01T09:21:10;13.68;;;6.32;;
69629;SDS011;56857;52.212;5.496;2023-04-01T09:26:56;12.27;;;6.20;;
69629;SDS011;56857;52.212;5.496;2023-04-01T09:49:05;11.98;;;6.25;;
69629;SDS011;56857;52.212;5.496;2023-04-01T09:52:25;9.80;;;5.38;;
69629;SDS011;56857;52.212;5.496;2023-04-01T10:00:53;9.45;;;5.32;;
69629;SDS011;56857;52.212;5.496;2023-04-01T10:06:32;9.13;;;4.75;;
69629;SDS011;56857;52.212;5.496;2023-04-01T10:15:36;9.25;;;5.03;;
69629;SDS011;56857;52.212;5.496;2023-04-01T10:24:50;10.65;;;4.78;;
69629;SDS011;56857;52.212;5.496;2023-04-01T11:25:29;4.13;;;1.92;;
69629;SDS011;56857;52.212;5.496;2023-04-01T11:34:45;5.28;;;2.30;;
69629;SDS011;56857;52.212;5.496;2023-04-01T11:37:14;6.47;;;1.98;;
69629;SDS011;56857;52.212;5.496;2023-04-01T11:43:07;5.20;;;2.10;;
69629;SDS011;56857;52.212;5.496;2023-04-01T11:57:18;8.32;;;2.97;;
69629;SDS011;56857;52.212;5.496;2023-04-01T12:06:01;6.38;;;3.00;;
69629;SDS011;56857;52.212;5.496;2023-04-01T12:12:09;7.97;;;3.20;;
69629;SDS011;56857;52.212;5.496;2023-04-01T12:14:59;13.90;;;6.25;;
69629;SDS011;56857;52.212;5.496;2023-04-01T12:17:39;13.05;;;7.03;;
69629;SDS011;56857;52.212;5.496;2023-04-01T12:20:37;13.68;;;7.82;;
69629;SDS011;56857;52.212;5.496;2023-04-01T12:29:37;17.35;;;8.23;;
69629;SDS011;56857;52.212;5.496;2023-04-01T12:41:01;19.00;;;9.80;;
69629;SDS011;56857;52.212;5.496;2023-04-01T12:52:11;10.18;;;4.50;;
69629;SDS011;56857;52.212;5.496;2023-04-01T12:54:56;8.63;;;4.45;;
69629;SDS011;56857;52.212;5.496;2023-04-01T13:05:47;10.80;;;4.40;;
69629;SDS011;56857;52.212;5.496;2023-04-01T13:25:10;8.02;;;3.80;;
69629;SDS011;56857;52.212;5.496;2023-04-01T13:27:56;10.05;;;4.60;;
69629;SDS011;56857;52.212;5.496;2023-04-01T13:30:33;9.77;;;4.68;;
69629;SDS011;56857;52.212;5.496;2023-04-01T13:41:57;9.68;;;4.80;;
69629;SDS011;56857;52.212;5.496;2023-04-01T13:44:48;10.45;;;4.35;;
69629;SDS011;56857;52.212;5.496;2023-04-01T13:53:21;8.05;;;4.43;;
69629;SDS011;56857;52.212;5.496;2023-04-01T13:56:08;9.27;;;5.30;;
69629;SDS011;56857;52.212;5.496;2023-04-01T14:04:03;9.38;;;4.88;;
69629;SDS011;56857;52.212;5.496;2023-04-01T14:07:00;9.50;;;4.63;;
69629;SDS011;56857;52.212;5.496;2023-04-01T14:12:09;8.25;;;4.38;;
69629;SDS011;56857;52.212;5.496;2023-04-01T14:17:31;6.97;;;3.63;;
69629;SDS011;56857;52.212;5.496;2023-04-01T14:23:00;7.93;;;3.55;;
69629;SDS011;56857;52.212;5.496;2023-04-01T14:25:48;7.88;;;4.10;;
69629;SDS011;56857;52.212;5.496;2023-04-01T14:28:31;7.72;;;3.92;;
69629;SDS011;56857;52.212;5.496;2023-04-01T14:42:03;7.85;;;3.53;;
69629;SDS011;56857;52.212;5.496;2023-04-01T14:50:30;8.75;;;4.07;;
69629;SDS011;56857;52.212;5.496;2023-04-01T14:55:51;7.88;;;4.20;;
69629;SDS011;56857;52.212;5.496;2023-04-01T14:58:20;8.10;;;4.50;;
69629;SDS011;56857;52.212;5.496;2023-04-01T15:01:06;8.38;;;4.72;;
69629;SDS011;56857;52.212;5.496;2023-04-01T15:04:02;7.32;;;3.75;;
69629;SDS011;56857;52.212;5.496;2023-04-01T15:09:10;9.27;;;3.92;;
69629;SDS011;56857;52.212;5.496;2023-04-01T15:12:07;7.18;;;3.63;;
69629;SDS011;56857;52.212;5.496;2023-04-01T15:14:46;7.03;;;3.03;;
69629;SDS011;56857;52.212;5.496;2023-04-01T15:17:35;6.40;;;3.20;;
69629;SDS011;56857;52.212;5.496;2023-04-01T15:23:02;7.05;;;3.58;;
69629;SDS011;56857;52.212;5.496;2023-04-01T15:32:04;6.53;;;3.28;;
69629;SDS011;56857;52.212;5.496;2023-04-01T15:34:19;7.00;;;3.17;;
69629;SDS011;56857;52.212;5.496;2023-04-01T15:40:02;5.50;;;2.95;;
69629;SDS011;56857;52.212;5.496;2023-04-01T15:45:17;6.53;;;3.28;;
69629;SDS011;56857;52.212;5.496;2023-04-01T15:48:45;5.75;;;3.05;;
69629;SDS011;56857;52.212;5.496;2023-04-01T15:51:11;7.15;;;2.88;;
69629;SDS011;56857;52.212;5.496;2023-04-01T15:53:49;5.70;;;2.90;;
69629;SDS011;56857;52.212;5.496;2023-04-01T15:56:30;6.85;;;3.70;;
69629;SDS011;56857;52.212;5.496;2023-04-01T16:02:35;6.20;;;3.40;;
69629;SDS011;56857;52.212;5.496;2023-04-01T16:04:58;6.55;;;3.53;;
69629;SDS011;56857;52.212;5.496;2023-04-01T16:10:34;7.05;;;3.88;;
69629;SDS011;56857;52.212;5.496;2023-04-01T16:13:25;7.07;;;3.70;;
69629;SDS011;56857;52.212;5.496;2023-04-01T16:19:11;7.03;;;3.75;;
69629;SDS011;56857;52.212;5.496;2023-04-01T16:23:02;7.10;;;3.95;;
69629;SDS011;56857;52.212;5.496;2023-04-01T16:33:35;6.65;;;3.50;;
69629;SDS011;56857;52.212;5.496;2023-04-01T16:36:10;6.88;;;3.85;;
69629;SDS011;56857;52.212;5.496;2023-04-01T16:41:41;6.85;;;3.53;;
69629;SDS011;56857;52.212;5.496;2023-04-01T16:44:23;5.38;;;2.95;;
69629;SDS011;56857;52.212;5.496;2023-04-01T16:46:51;6.82;;;3.80;;
69629;SDS011;56857;52.212;5.496;2023-04-01T16:54:47;7.18;;;3.92;;
69629;SDS011;56857;52.212;5.496;2023-04-01T16:57:26;6.47;;;3.42;;
69629;SDS011;56857;52.212;5.496;2023-04-01T17:03:08;5.75;;;3.10;;
69629;SDS011;56857;52.212;5.496;2023-04-01T17:05:17;7.82;;;4.00;;
69629;SDS011;56857;52.212;5.496;2023-04-01T17:13:29;6.72;;;3.25;;
69629;SDS011;56857;52.212;5.496;2023-04-01T17:24:38;5.38;;;2.85;;
69629;SDS011;56857;52.212;5.496;2023-04-01T17:43:50;6.20;;;3.45;;
69629;SDS011;56857;52.212;5.496;2023-04-01T17:46:48;6.90;;;3.28;;
69629;SDS011;56857;52.212;5.496;2023-04-01T17:53:03;8.85;;;4.10;;
69629;SDS011;56857;52.212;5.496;2023-04-01T17:58:25;8.65;;;3.50;;
69629;SDS011;56857;52.212;5.496;2023-04-01T18:12:09;7.10;;;4.20;;
69629;SDS011;56857;52.212;5.496;2023-04-01T18:17:30;7.63;;;4.25;;
69629;SDS011;56857;52.212;5.496;2023-04-01T18:20:30;7.10;;;3.63;;
69629;SDS011;56857;52.212;5.496;2023-04-01T18:23:03;6.72;;;3.90;;
69629;SDS011;56857;52.212;5.496;2023-04-01T18:33:34;7.35;;;4.25;;
69629;SDS011;56857;52.212;5.496;2023-04-01T18:36:26;8.00;;;4.80;;
69629;SDS011;56857;52.212;5.496;2023-04-01T18:42:15;7.68;;;4.28;;
69629;SDS011;56857;52.212;5.496;2023-04-01T18:44:46;8.05;;;4.03;;
69629;SDS011;56857;52.212;5.496;2023-04-01T18:53:27;6.93;;;3.85;;
69629;SDS011;56857;52.212;5.496;2023-04-01T18:56:01;6.53;;;3.97;;
69629;SDS011;56857;52.212;5.496;2023-04-01T18:58:34;6.88;;;4.10;;
69629;SDS011;56857;52.212;5.496;2023-04-01T19:06:50;6.38;;;4.07;;
69629;SDS011;56857;52.212;5.496;2023-04-01T19:09:45;8.98;;;3.58;;
69629;SDS011;56857;52.212;5.496;2023-04-01T19:32:12;7.93;;;4.78;;
69629;SDS011;56857;52.212;5.496;2023-04-01T19:38:03;11.10;;;5.13;;
69629;SDS011;56857;52.212;5.496;2023-04-01T19:51:35;9.65;;;5.20;;
69629;SDS011;56857;52.212;5.496;2023-04-01T19:54:24;10.20;;;6.03;;
69629;SDS011;56857;52.212;5.496;2023-04-01T20:06:11;9.95;;;6.63;;
69629;SDS011;56857;52.212;5.496;2023-04-01T20:08:58;9.57;;;6.20;;
69629;SDS011;56857;52.212;5.496;2023-04-01T20:14:43;10.05;;;6.13;;
69629;SDS011;56857;52.212;5.496;2023-04-01T20:17:18;12.93;;;6.78;;
69629;SDS011;56857;52.212;5.496;2023-04-01T20:19:51;10.73;;;6.80;;
69629;SDS011;56857;52.212;5.496;2023-04-01T20:28:28;11.98;;;7.13;;
69629;SDS011;56857;52.212;5.496;2023-04-01T20:31:18;11.82;;;7.22;;
69629;SDS011;56857;52.212;5.496;2023-04-01T20:34:31;10.30;;;6.15;;
69629;SDS011;56857;52.212;5.496;2023-04-01T20:45:51;12.68;;;7.00;;
69629;SDS011;56857;52.212;5.496;2023-04-01T20:54:40;10.23;;;6.07;;
69629;SDS011;56857;52.212;5.496;2023-04-01T21:03:16;12.13;;;6.38;;
69629;SDS011;56857;52.212;5.496;2023-04-01T21:06:04;10.18;;;6.38;;
69629;SDS011;56857;52.212;5.496;2023-04-01T21:11:53;9.10;;;5.63;;
69629;SDS011;56857;52.212;5.496;2023-04-01T21:23:17;11.10;;;6.32;;
69629;SDS011;56857;52.212;5.496;2023-04-01T21:47:08;11.85;;;6.78;;
69629;SDS011;56857;52.212;5.496;2023-04-01T21:59:03;11.25;;;6.85;;
69629;SDS011;56857;52.212;5.496;2023-04-01T22:07:21;12.07;;;6.13;;
69629;SDS011;56857;52.212;5.496;2023-04-01T22:20:36;13.18;;;7.25;;
69629;SDS011;56857;52.212;5.496;2023-04-01T22:23:26;12.60;;;7.10;;
69629;SDS011;56857;52.212;5.496;2023-04-01T22:29:15;15.43;;;7.30;;
69629;SDS011;56857;52.212;5.496;2023-04-01T22:35:02;14.80;;;7.50;;
69629;SDS011;56857;52.212;5.496;2023-04-01T22:37:46;16.65;;;7.47;;
69629;SDS011;56857;52.212;5.496;2023-04-01T22:40:40;11.52;;;7.43;;
69629;SDS011;56857;52.212;5.496;2023-04-01T22:46:15;15.18;;;8.10;;
69629;SDS011;56857;52.212;5.496;2023-04-01T22:49:04;12.82;;;7.75;;
69629;SDS011;56857;52.212;5.496;2023-04-01T22:54:43;15.10;;;7.72;;
69629;SDS011;56857;52.212;5.496;2023-04-01T23:00:11;13.68;;;7.93;;
69629;SDS011;56857;52.212;5.496;2023-04-01T23:02:47;16.48;;;8.05;;
69629;SDS011;56857;52.212;5.496;2023-04-01T23:05:25;14.23;;;8.23;;
69629;SDS011;56857;52.212;5.496;2023-04-01T23:10:56;15.90;;;8.93;;
69629;SDS011;56857;52.212;5.496;2023-04-01T23:13:29;13.68;;;7.97;;
69629;SDS011;56857;52.212;5.496;2023-04-01T23:29:35;17.05;;;9.18;;
69629;SDS011;56857;52.212;5.496;2023-04-01T23:34:53;17.20;;;8.38;;
69629;SDS011;56857;52.212;5.496;2023-04-01T23:37:21;19.52;;;9.38;;
69629;SDS011;56857;52.212;5.496;2023-04-01T23:39:49;17.05;;;9.15;;
69629;SDS011;56857;52.212;5.496;2023-04-01T23:42:26;16.88;;;9.23;;
69629;SDS011;56857;52.212;5.496;2023-04-01T23:45:14;16.05;;;9.32;;
69629;SDS011;56857;52.212;5.496;2023-04-01T23:47:42;15.70;;;9.02;;
69629;SDS011;56857;52.212;5.496;2023-04-01T23:50:16;15.57;;;8.43;;
69629;SDS011;56857;52.212;5.496;2023-04-01T23:53:31;15.98;;;9.40;;
69629;SDS011;56857;52.212;5.496;2023-04-01T23:55:47;16.98;;;8.80;;
